Time;durP1;ratioP1;P1;durP2;ratioP2;P2;SDS_P1;SDS_P2;PMS_P1;PMS_P2;Temp;Humidity;BMP_temperature;BMP_pressure;BME280_temperature;BME280_humidity;BME280_pressure;Samples;Min_cycle;Max_cycle;Signal;HPM_P1;HPM_P2
2023/01/11 00:01:20;;;;;;;0.40;0.40;;;7.70;99.90;;;7.69;83.29;100739.72;5011005;28;20663;-66
2023/01/11 00:03:48;;;;;;;0.90;0.90;;;7.70;99.90;;;7.72;83.09;100721.38;5031052;28;20691;-68
2023/01/11 00:06:15;;;;;;;0.57;0.40;;;7.70;99.90;;;7.77;82.76;100723.69;5003243;28;20628;-69
2023/01/11 00:08:42;;;;;;;0.73;0.40;;;7.70;99.90;;;7.76;82.14;100715.06;5020345;28;20660;-68
2023/01/11 00:11:14;;;;;;;0.40;0.40;;;7.80;99.90;;;7.78;82.18;100717.56;5018469;28;20634;-68
2023/01/11 00:13:44;;;;;;;1.00;0.90;;;7.80;99.90;;;7.80;82.74;100721.75;5010512;28;20628;-69
2023/01/11 00:16:11;;;;;;;0.83;0.30;;;7.80;99.90;;;7.85;82.28;100729.25;4977235;28;20629;-69
2023/01/11 00:18:39;;;;;;;0.27;0.20;;;7.80;99.90;;;7.86;81.84;100723.13;5002981;28;20670;-66
2023/01/11 00:21:07;;;;;;;0.40;0.40;;;7.80;99.90;;;7.90;81.77;100718.59;5008746;28;20637;-69
2023/01/11 00:23:36;;;;;;;0.50;0.47;;;7.80;99.90;;;7.93;81.68;100716.66;5009444;28;20697;-65
2023/01/11 00:26:05;;;;;;;0.40;0.40;;;7.90;99.90;;;8.00;81.57;100709.31;4992573;28;20629;-67
2023/01/11 00:28:32;;;;;;;0.50;0.50;;;8.00;99.90;;;8.02;80.38;100707.47;4979797;28;21078;-67
2023/01/11 00:30:59;;;;;;;0.50;0.33;;;8.00;99.90;;;8.04;81.28;100708.22;4997030;28;21235;-69
2023/01/11 00:33:26;;;;;;;0.50;0.50;;;8.00;99.90;;;8.06;80.54;100698.56;5017086;28;21047;-67
2023/01/11 00:35:53;;;;;;;0.50;0.50;;;8.00;99.90;;;8.05;81.26;100699.50;4997215;28;20648;-68
2023/01/11 00:49:24;;;;;;;0.30;0.30;;;8.10;99.90;;;8.04;82.54;100662.28;4995132;28;21439;-68
2023/01/11 00:51:51;;;;;;;0.50;0.50;;;8.00;99.90;;;8.05;83.82;100650.94;5012729;28;20994;-67
2023/01/11 00:54:19;;;;;;;0.50;0.50;;;8.00;99.90;;;8.06;83.88;100647.44;5013364;28;20637;-67
2023/01/11 00:56:46;;;;;;;0.20;0.20;;;8.10;99.90;;;8.06;84.78;100649.19;5013574;28;20741;-69
2023/01/11 00:59:13;;;;;;;0.30;0.30;;;8.10;99.90;;;8.05;85.35;100648.34;5001858;28;20664;-68
2023/01/11 01:01:40;;;;;;;0.80;0.60;;;8.00;99.90;;;8.03;85.33;100644.19;5021843;28;20995;-69
2023/01/11 01:04:07;;;;;;;0.40;0.40;;;8.00;99.90;;;8.05;85.10;100639.75;4991463;28;20766;-68
2023/01/11 01:06:34;;;;;;;1.90;0.50;;;8.00;99.90;;;8.04;84.72;100638.06;5004399;28;20643;-68
2023/01/11 01:09:01;;;;;;;7.20;1.00;;;8.00;99.90;;;8.04;84.97;100645.84;5013448;28;20657;-68
2023/01/11 01:11:28;;;;;;;2.33;0.60;;;8.00;99.90;;;8.05;84.34;100645.75;5007346;28;20640;-67
2023/01/11 01:16:41;;;;;;;0.30;0.30;;;8.00;99.90;;;8.08;86.86;100642.13;4999327;28;20633;-67
2023/01/11 01:19:08;;;;;;;0.40;0.40;;;8.00;99.90;;;8.08;86.19;100642.13;4989995;28;20650;-67
2023/01/11 01:21:36;;;;;;;0.30;0.30;;;8.10;99.90;;;8.06;86.71;100644.00;5005333;28;20728;-67
2023/01/11 01:24:04;;;;;;;0.33;0.33;;;8.00;99.90;;;8.08;86.90;100632.56;5013794;28;20719;-67
2023/01/11 01:26:30;;;;;;;0.43;0.43;;;8.00;99.90;;;8.08;85.79;100634.34;4988601;28;21177;-68
2023/01/11 01:28:57;;;;;;;3.40;0.80;;;8.00;99.90;;;8.09;85.23;100644.63;5011209;28;21018;-67
2023/01/11 01:31:24;;;;;;;0.53;0.50;;;8.10;99.90;;;8.16;84.90;100632.09;5010681;28;20743;-71
2023/01/11 01:33:51;;;;;;;1.80;0.63;;;8.10;99.90;;;8.16;85.66;100632.09;5013544;28;20613;-68
2023/01/11 01:36:18;;;;;;;0.20;0.20;;;8.10;99.90;;;8.17;85.24;100628.56;5006489;28;20682;-67
2023/01/11 01:38:45;;;;;;;1.40;0.90;;;8.10;99.90;;;8.18;85.88;100632.81;4995252;28;20661;-67
2023/01/11 01:41:13;;;;;;;0.80;0.40;;;8.10;99.90;;;8.18;85.68;100630.22;5012446;28;20621;-68
2023/01/11 01:43:52;;;;;;;0.70;0.63;;;8.10;99.90;;;8.19;85.86;100622.34;5013958;28;20622;-67
2023/01/11 01:46:22;;;;;;;0.67;0.67;;;8.20;99.90;;;8.23;85.08;100623.00;5013290;28;20740;-69
2023/01/11 01:49:02;;;;;;;0.93;0.80;;;8.20;99.90;;;8.25;85.51;100629.81;4980051;28;20653;-69
2023/01/11 01:51:48;;;;;;;0.40;0.40;;;8.20;99.90;;;8.24;85.95;100619.47;5001744;28;20720;-68
2023/01/11 01:54:22;;;;;;;8.23;0.77;;;8.20;99.90;;;8.24;85.83;100624.69;4978505;28;20634;-69
2023/01/11 01:56:56;;;;;;;0.30;0.30;;;8.20;99.90;;;8.26;85.88;100623.66;4987980;28;20635;-67
2023/01/11 01:59:28;;;;;;;0.47;0.47;;;8.20;99.90;;;8.26;87.26;100628.84;5012146;28;21073;-67
2023/01/11 02:01:56;;;;;;;0.40;0.40;;;8.20;99.90;;;8.25;87.51;100631.53;4967657;28;21020;-67
2023/01/11 02:04:29;;;;;;;0.50;0.50;;;8.20;99.90;;;8.28;88.52;100629.63;4997000;28;20663;-64
2023/01/11 02:07:07;;;;;;;0.30;0.30;;;8.20;99.90;;;8.30;89.28;100634.72;5024697;28;21046;-67
2023/01/11 02:09:44;;;;;;;1.30;0.80;;;8.30;99.90;;;8.33;89.30;100619.75;5015082;28;20647;-68
2023/01/11 02:12:11;;;;;;;2.33;1.00;;;8.30;99.90;;;8.30;89.42;100624.31;5001425;28;21346;-67
2023/01/11 02:14:40;;;;;;;0.40;0.40;;;8.30;99.90;;;8.25;90.32;100626.34;4979630;28;20633;-68
2023/01/11 02:17:09;;;;;;;0.53;0.53;;;8.20;99.90;;;8.28;91.20;100626.19;5013061;28;20724;-67
2023/01/11 02:19:51;;;;;;;1.10;1.00;;;8.20;99.90;;;8.28;91.27;100621.81;4984745;28;20654;-68
2023/01/11 02:22:46;;;;;;;5.30;0.40;;;8.30;99.90;;;8.28;90.70;100627.03;5008058;28;20649;-68
2023/01/11 02:25:58;;;;;;;0.27;0.27;;;8.20;99.90;;;8.29;91.28;100609.63;5012939;28;20653;-68
2023/01/11 02:28:49;;;;;;;0.40;0.40;;;8.30;99.90;;;8.26;92.38;100617.66;4984142;28;20715;-68
2023/01/11 02:31:30;;;;;;;0.50;0.50;;;8.30;99.90;;;8.25;93.10;100597.75;5013270;28;20637;-68
2023/01/11 02:34:41;;;;;;;0.37;0.37;;;8.20;99.90;;;8.27;93.09;100604.53;5012865;28;20617;-68
2023/01/11 02:37:35;;;;;;;0.43;0.43;;;8.20;99.90;;;8.27;93.87;100595.91;5017962;28;20640;-68
2023/01/11 02:40:14;;;;;;;0.60;0.57;;;8.20;99.90;;;8.28;93.90;100593.25;5025519;28;20643;-68
2023/01/11 02:46:26;;;;;;;1.43;0.63;;;8.30;99.90;;;8.28;94.57;100585.44;4947566;29;20665;-68
2023/01/11 02:49:35;;;;;;;0.90;0.50;;;8.20;99.90;;;8.34;94.55;100587.66;4925519;29;20637;-68
2023/01/11 02:52:17;;;;;;;0.87;0.40;;;8.30;99.90;;;8.33;95.07;100578.16;4966126;28;20641;-68
2023/01/11 02:54:52;;;;;;;0.40;0.40;;;8.30;99.90;;;8.33;94.60;100572.97;4998277;28;20628;-68
2023/01/11 02:57:21;;;;;;;0.30;0.30;;;8.30;99.90;;;8.35;95.06;100580.66;5000045;28;20632;-67
2023/01/11 02:59:50;;;;;;;0.43;0.43;;;8.30;99.90;;;8.37;94.62;100576.19;4995295;28;20630;-68
2023/01/11 03:02:16;;;;;;;0.87;0.60;;;8.30;99.90;;;8.37;94.76;100564.03;5001764;28;20652;-69
2023/01/11 03:04:43;;;;;;;0.30;0.30;;;8.30;99.90;;;8.40;95.20;100566.44;5023749;28;20660;-68
2023/01/11 03:07:46;;;;;;;0.80;0.40;;;8.40;99.90;;;8.41;96.15;100569.88;5044004;22;20692;-65
2023/01/11 03:10:49;;;;;;;0.63;0.40;;;8.30;99.90;;;8.41;95.66;100564.69;5031769;28;21016;-65
2023/01/11 03:14:01;;;;;;;0.50;0.50;;;8.40;99.90;;;8.46;95.77;100552.22;5007132;28;21267;-65
2023/01/11 03:16:50;;;;;;;0.40;0.40;;;8.40;99.90;;;8.46;96.20;100558.25;4995323;28;20653;-65
2023/01/11 03:19:42;;;;;;;0.30;0.30;;;8.40;99.90;;;8.47;97.14;100565.13;4993419;28;21204;-65
2023/01/11 03:22:26;;;;;;;1.43;0.40;;;8.40;99.90;;;8.53;96.75;100563.91;4975652;28;21210;-66
2023/01/11 03:25:37;;;;;;;0.20;0.20;;;8.50;99.90;;;8.54;96.83;100565.53;4988551;28;20668;-65
2023/01/11 03:28:28;;;;;;;0.30;0.30;;;8.50;99.90;;;8.55;97.36;100557.66;4989366;28;20655;-65
2023/01/11 03:31:03;;;;;;;0.37;0.37;;;8.50;99.90;;;8.56;97.66;100563.72;5007157;28;20641;-65
2023/01/11 03:33:55;;;;;;;0.60;0.50;;;8.50;99.90;;;8.56;97.66;100554.13;4998227;28;20674;-64
2023/01/11 03:36:52;;;;;;;0.60;0.53;;;8.50;99.90;;;8.56;98.38;100538.50;5002966;28;20664;-64
2023/01/11 03:39:59;;;;;;;0.73;0.73;;;8.50;99.90;;;8.60;98.27;100529.56;4975634;28;20700;-64
2023/01/11 03:42:27;;;;;;;0.30;0.30;;;8.60;99.90;;;8.62;97.77;100541.66;4992954;28;20644;-65
2023/01/11 03:44:57;;;;;;;0.37;0.37;;;8.60;99.90;;;8.58;98.06;100535.84;4993538;28;20657;-65
2023/01/11 03:47:27;;;;;;;0.57;0.57;;;8.60;99.90;;;8.59;98.19;100527.09;4983392;28;20704;-64
2023/01/11 03:50:07;;;;;;;0.60;0.60;;;8.50;99.90;;;8.59;98.86;100524.47;4989696;28;20624;-64
2023/01/11 03:52:38;;;;;;;0.40;0.40;;;8.50;99.90;;;8.63;99.30;100520.75;5002709;28;20692;-64
2023/01/11 03:55:08;;;;;;;0.40;0.40;;;8.60;99.90;;;8.64;98.74;100524.19;4990383;28;20636;-65
2023/01/11 03:57:50;;;;;;;0.77;0.40;;;8.60;99.90;;;8.62;99.62;100521.69;4986511;28;20669;-65
2023/01/11 04:00:22;;;;;;;13.20;0.60;;;8.60;99.90;;;8.62;99.84;100518.25;5007934;28;20756;-65
2023/01/11 04:02:48;;;;;;;0.60;0.40;;;8.60;99.90;;;8.61;100.00;100514.81;4993407;28;21177;-65
2023/01/11 04:05:15;;;;;;;0.30;0.30;;;8.60;99.90;;;8.65;99.78;100511.06;5000414;28;20666;-64
2023/01/11 04:07:42;;;;;;;0.50;0.50;;;8.60;99.90;;;8.64;99.51;100509.41;4991574;28;20617;-65
2023/01/11 04:10:10;;;;;;;0.40;0.40;;;8.60;99.90;;;8.66;99.38;100502.34;5006638;28;20974;-65
2023/01/11 04:12:37;;;;;;;0.50;0.50;;;8.70;99.90;;;8.70;98.90;100502.97;5005968;28;20634;-65
2023/01/11 04:15:04;;;;;;;0.20;0.20;;;8.60;99.90;;;8.72;99.06;100504.53;5010646;28;20663;-64
2023/01/11 04:17:31;;;;;;;0.83;0.57;;;8.70;99.90;;;8.73;99.01;100498.38;5029958;28;20644;-65
2023/01/11 04:19:58;;;;;;;0.73;0.40;;;8.70;99.90;;;8.73;98.67;100502.78;5014616;28;20671;-66
2023/01/11 04:22:25;;;;;;;1.80;0.40;;;8.70;99.90;;;8.74;99.25;100489.66;5030707;28;20635;-65
2023/01/11 04:24:52;;;;;;;0.30;0.30;;;8.70;99.90;;;8.76;98.62;100485.19;5009548;28;21065;-66
2023/01/11 04:27:18;;;;;;;0.30;0.30;;;8.70;99.90;;;8.78;98.55;100479.88;4995795;28;20634;-66
2023/01/11 04:29:45;;;;;;;0.73;0.60;;;8.80;99.90;;;8.79;98.46;100477.19;5008673;28;20629;-65
2023/01/11 04:32:12;;;;;;;13.13;0.60;;;8.80;99.90;;;8.83;98.84;100473.44;5028420;28;20636;-66
2023/01/11 04:34:39;;;;;;;0.47;0.47;;;8.80;99.90;;;8.86;98.31;100473.22;5020951;28;20629;-66
2023/01/11 04:37:06;;;;;;;0.67;0.30;;;8.80;99.90;;;8.88;98.72;100471.34;5026253;28;21247;-65
2023/01/11 04:39:33;;;;;;;0.60;0.50;;;8.80;99.90;;;8.87;99.35;100461.91;5022500;28;20633;-65
2023/01/11 04:42:18;;;;;;;1.30;0.77;;;8.80;99.90;;;8.90;99.70;100460.84;5013600;28;20633;-67
2023/01/11 04:44:49;;;;;;;0.30;0.30;;;8.80;99.90;;;8.93;99.87;100469.28;4999821;28;20656;-66
2023/01/11 04:47:21;;;;;;;0.40;0.40;;;8.90;99.90;;;8.94;100.00;100459.72;4981865;28;20664;-67
2023/01/11 04:49:48;;;;;;;0.33;0.33;;;8.90;99.90;;;8.97;100.00;100468.13;5008131;28;21030;-66
2023/01/11 04:52:18;;;;;;;0.30;0.30;;;8.90;99.90;;;8.99;100.00;100463.66;5013964;28;20643;-65
2023/01/11 04:54:47;;;;;;;0.50;0.40;;;8.90;99.90;;;9.03;100.00;100462.50;5014350;28;20636;-67
2023/01/11 04:57:16;;;;;;;1.77;0.67;;;9.00;99.90;;;9.04;100.00;100463.34;5014885;28;21009;-67
2023/01/11 04:59:45;;;;;;;0.30;0.30;;;9.00;99.90;;;9.09;100.00;100464.69;5014805;28;20633;-66
2023/01/11 05:02:13;;;;;;;0.40;0.40;;;9.00;99.90;;;9.07;100.00;100455.34;5014925;28;20676;-65
2023/01/11 05:04:40;;;;;;;0.50;0.50;;;9.00;99.90;;;9.09;100.00;100464.69;5014676;28;20636;-66
2023/01/11 05:07:08;;;;;;;0.30;0.30;;;9.00;99.90;;;9.06;100.00;100464.06;5014697;28;20687;-66
2023/01/11 05:09:35;;;;;;;1.50;0.30;;;9.00;99.90;;;9.06;100.00;100458.88;5025365;28;21045;-67
2023/01/11 05:12:03;;;;;;;0.30;0.30;;;9.00;99.90;;;9.00;100.00;100465.34;5014335;28;20640;-65
2023/01/11 05:14:30;;;;;;;0.50;0.40;;;9.00;99.90;;;8.94;100.00;100460.56;5007800;28;20644;-66
2023/01/11 05:16:59;;;;;;;0.40;0.40;;;8.90;99.90;;;8.99;100.00;100453.25;5013436;28;20647;-66
2023/01/11 05:19:26;;;;;;;0.37;0.37;;;8.90;99.90;;;8.99;100.00;100453.25;5020572;28;21013;-66
2023/01/11 05:21:53;;;;;;;0.80;0.50;;;9.00;99.90;;;9.01;100.00;100453.97;5015840;28;20616;-64
2023/01/11 05:24:20;;;;;;;0.40;0.40;;;9.00;99.90;;;9.01;100.00;100460.94;5013972;28;20674;-65
2023/01/11 05:26:49;;;;;;;0.30;0.30;;;9.00;99.90;;;8.98;100.00;100459.41;4997660;28;20673;-65
2023/01/11 05:29:17;;;;;;;0.30;0.30;;;8.90;99.90;;;8.96;100.00;100456.06;5008538;28;20719;-64
2023/01/11 05:31:44;;;;;;;0.70;0.57;;;8.90;99.90;;;8.97;100.00;100454.28;5022099;28;20620;-64
2023/01/11 05:34:13;;;;;;;0.47;0.47;;;8.90;99.90;;;8.98;100.00;100446.41;5011575;28;20618;-64
2023/01/11 05:36:40;;;;;;;1.37;0.50;;;8.90;99.90;;;9.00;100.00;100441.06;5026193;28;20714;-65
2023/01/11 05:39:10;;;;;;;0.40;0.40;;;9.00;99.90;;;9.03;100.00;100443.47;5012747;28;21203;-65
2023/01/11 05:41:37;;;;;;;0.33;0.33;;;9.00;99.90;;;9.04;100.00;100434.72;5012519;28;20699;-65
2023/01/11 05:46:49;;;;;;;0.40;0.40;;;9.00;99.90;;;9.01;100.00;100430.56;5000966;28;20680;-65
2023/01/11 05:49:16;;;;;;;0.30;0.30;;;9.00;99.90;;;9.05;100.00;100426.78;5009606;28;21057;-66
2023/01/11 05:51:43;;;;;;;0.30;0.30;;;9.00;99.90;;;9.05;100.00;100421.59;4997740;28;20621;-66
2023/01/11 05:54:13;;;;;;;0.50;0.50;;;9.00;99.90;;;9.05;100.00;100420.78;5010688;28;20637;-65
2023/01/11 05:56:41;;;;;;;2.93;0.67;;;9.00;99.90;;;9.07;100.00;100413.69;4995449;28;20649;-63
2023/01/11 05:59:08;;;;;;;2.77;0.30;;;9.00;99.90;;;9.09;100.00;100417.03;4992209;28;20696;-66
2023/01/11 06:01:36;;;;;;;0.30;0.30;;;9.00;99.90;;;9.11;100.00;100405.59;4998746;28;21240;-66
2023/01/11 06:04:03;;;;;;;0.40;0.40;;;9.10;99.90;;;9.12;100.00;100409.00;5025494;28;21282;-66
2023/01/11 06:06:31;;;;;;;0.43;0.43;;;9.10;99.90;;;9.15;100.00;100409.63;5014448;28;21084;-66
2023/01/11 06:08:58;;;;;;;0.50;0.50;;;9.10;99.90;;;9.16;100.00;100400.88;5006635;28;20667;-64
2023/01/11 06:11:25;;;;;;;1.93;0.70;;;9.10;99.90;;;9.18;100.00;100399.00;5016083;28;20624;-66
2023/01/11 06:13:52;;;;;;;0.30;0.30;;;9.10;99.90;;;9.19;100.00;100400.66;5006611;28;21008;-66
2023/01/11 06:16:21;;;;;;;0.83;0.50;;;9.10;99.90;;;9.16;100.00;100400.88;5012588;28;20727;-66
2023/01/11 06:18:50;;;;;;;0.30;0.30;;;9.10;99.90;;;9.20;100.00;100393.66;5007612;28;20715;-66
2023/01/11 06:21:18;;;;;;;0.40;0.40;;;9.10;99.90;;;9.18;100.00;100388.56;5012942;28;20625;-66
2023/01/11 06:23:49;;;;;;;2.30;1.37;;;9.10;99.90;;;9.22;100.00;100382.22;4995642;28;20644;-66
2023/01/11 06:26:20;;;;;;;0.60;0.60;;;9.20;99.90;;;9.26;100.00;100375.03;4983821;28;20674;-66
2023/01/11 06:28:48;;;;;;;0.40;0.40;;;9.20;99.90;;;9.27;100.00;100379.28;5023639;28;20696;-67
2023/01/11 06:31:16;;;;;;;0.30;0.30;;;9.20;99.90;;;9.31;100.00;100378.13;5018932;28;20981;-66
2023/01/11 06:33:44;;;;;;;0.40;0.40;;;9.20;99.90;;;9.32;100.00;100378.03;5020094;28;20731;-66
2023/01/11 06:36:13;;;;;;;0.53;0.53;;;9.20;99.90;;;9.33;100.00;100364.06;5026165;28;20775;-66
2023/01/11 06:38:41;;;;;;;0.40;0.40;;;9.30;99.90;;;9.38;100.00;100361.16;5020235;28;20641;-66
2023/01/11 06:41:09;;;;;;;0.37;0.37;;;9.30;99.90;;;9.44;100.00;100360.69;5012650;28;20613;-66
2023/01/11 06:43:40;;;;;;;0.40;0.40;;;9.30;99.90;;;9.47;100.00;100350.09;4994098;28;20637;-66
2023/01/11 06:46:14;;;;;;;0.50;0.50;;;9.40;99.90;;;9.53;100.00;100349.63;5018759;28;21073;-66
2023/01/11 06:48:42;;;;;;;0.40;0.40;;;9.40;99.90;;;9.57;100.00;100352.84;5021967;28;20630;-66
2023/01/11 06:51:10;;;;;;;0.40;0.40;;;9.50;99.90;;;9.60;100.00;100350.03;5011019;28;20625;-66
2023/01/11 06:53:38;;;;;;;1.00;0.60;;;9.50;99.90;;;9.66;100.00;100354.78;5019419;28;20655;-66
2023/01/11 06:56:06;;;;;;;0.40;0.40;;;9.60;99.90;;;9.69;100.00;100360.59;5019488;28;20676;-66
2023/01/11 06:58:33;;;;;;;0.33;0.33;;;9.60;99.90;;;9.72;100.00;100354.34;5031945;28;20716;-66
2023/01/11 07:01:00;;;;;;;0.40;0.40;;;9.60;99.90;;;9.77;100.00;100354.84;5002454;28;20634;-66
2023/01/11 07:03:27;;;;;;;0.50;0.50;;;9.70;99.90;;;9.73;100.00;100346.41;4992025;28;20632;-66
2023/01/11 07:05:55;;;;;;;0.43;0.40;;;9.70;99.90;;;9.76;100.00;100346.19;5009993;28;20672;-66
2023/01/11 07:08:24;;;;;;;0.30;0.30;;;9.70;99.90;;;9.76;100.00;100348.78;5012743;28;20610;-65
2023/01/11 07:10:52;;;;;;;1.60;0.53;;;9.70;99.90;;;9.77;100.00;100341.81;5022477;28;21004;-66
2023/01/11 07:13:20;;;;;;;0.77;0.77;;;9.70;99.90;;;9.78;100.00;100340.84;5009116;28;20728;-66
2023/01/11 07:15:49;;;;;;;0.40;0.40;;;9.70;99.90;;;9.77;100.00;100344.44;5005105;28;20668;-66
2023/01/11 07:18:18;;;;;;;0.40;0.40;;;9.70;99.90;;;9.75;100.00;100341.09;5006328;28;20621;-66
2023/01/11 07:20:45;;;;;;;0.40;0.40;;;9.70;99.90;;;9.71;100.00;100335.25;5002396;28;20668;-65
2023/01/11 07:23:12;;;;;;;14.30;0.60;;;9.60;99.90;;;9.72;100.00;100339.53;5021120;28;21012;-65
2023/01/11 07:25:39;;;;;;;0.33;0.33;;;9.70;99.90;;;9.70;100.00;100338.00;5012032;28;20669;-65
2023/01/11 07:28:07;;;;;;;0.60;0.60;;;9.60;99.90;;;9.68;100.00;100340.72;5010362;28;20637;-66
2023/01/11 07:30:38;;;;;;;0.40;0.40;;;9.60;99.90;;;9.69;100.00;100344.97;5006985;28;21201;-66
2023/01/11 07:33:24;;;;;;;2.20;0.40;;;9.60;99.90;;;9.67;100.00;100340.84;5010645;28;20617;-66
2023/01/11 07:35:51;;;;;;;0.87;0.47;;;9.60;99.90;;;9.63;100.00;100344.56;5000825;28;20658;-66
2023/01/11 07:38:18;;;;;;;0.40;0.40;;;9.60;99.90;;;9.66;100.00;100341.75;5015454;28;21196;-65
2023/01/11 07:40:45;;;;;;;3.07;0.40;;;9.60;99.90;;;9.64;100.00;100346.25;5010697;28;20661;-65
2023/01/11 07:43:18;;;;;;;0.50;0.50;;;9.60;99.90;;;9.66;100.00;100339.16;5011348;28;20644;-65
2023/01/11 07:45:48;;;;;;;0.37;0.37;;;9.60;99.90;;;9.68;100.00;100342.47;5001215;28;20677;-65
2023/01/11 07:48:23;;;;;;;0.30;0.30;;;9.60;99.90;;;9.66;100.00;100350.41;4992656;28;20613;-65
2023/01/11 07:50:52;;;;;;;0.30;0.30;;;9.60;99.90;;;9.67;100.00;100354.66;4994076;28;20663;-65
2023/01/11 07:53:19;;;;;;;0.50;0.50;;;9.60;99.90;;;9.63;100.00;100355.00;5010744;28;21221;-65
2023/01/11 07:55:46;;;;;;;0.30;0.30;;;9.50;99.90;;;9.62;100.00;100353.34;5005476;28;20681;-65
2023/01/11 07:58:14;;;;;;;0.30;0.30;;;9.50;99.90;;;9.61;100.00;100352.50;5009992;28;20625;-65
2023/01/11 08:00:41;;;;;;;0.60;0.40;;;9.60;99.90;;;9.64;100.00;100351.47;4992745;28;20641;-65
2023/01/11 08:03:08;;;;;;;0.50;0.50;;;9.60;99.90;;;9.65;100.00;100356.56;5004774;28;20653;-65
2023/01/11 08:05:35;;;;;;;0.70;0.50;;;9.60;99.90;;;9.66;100.00;100355.63;4997046;28;20721;-65
2023/01/11 08:08:03;;;;;;;0.60;0.40;;;9.60;99.90;;;9.62;100.00;100353.34;4998763;28;21004;-65
2023/01/11 08:10:30;;;;;;;0.50;0.50;;;9.50;99.90;;;9.64;100.00;100354.06;5008226;28;20628;-65
2023/01/11 08:15:43;;;;;;;0.40;0.40;;;9.60;99.90;;;9.71;100.00;100352.69;5006106;28;21439;-65
2023/01/11 08:18:11;;;;;;;3.70;0.47;;;9.60;99.90;;;9.68;100.00;100358.94;5011712;28;20632;-65
2023/01/11 08:20:39;;;;;;;0.40;0.40;;;9.60;99.90;;;9.70;100.00;100349.25;5025056;28;20624;-65
2023/01/11 08:23:08;;;;;;;0.50;0.50;;;9.60;99.90;;;9.70;100.00;100345.81;4996670;28;20633;-66
2023/01/11 08:25:36;;;;;;;0.40;0.40;;;9.60;99.90;;;9.74;100.00;100349.84;4993724;28;20653;-65
2023/01/11 08:28:06;;;;;;;0.40;0.40;;;9.60;99.90;;;9.74;100.00;100355.91;4993055;28;20716;-66
2023/01/11 08:30:35;;;;;;;0.30;0.30;;;9.70;99.90;;;9.75;100.00;100347.13;4999948;28;21222;-61
2023/01/11 08:33:04;;;;;;;0.30;0.30;;;9.70;99.90;;;9.77;100.00;100344.44;4992409;28;20614;-66
2023/01/11 08:35:36;;;;;;;4.40;0.50;;;9.70;99.90;;;9.74;100.00;100340.25;5008051;28;20629;-62
2023/01/11 08:38:03;;;;;;;0.33;0.33;;;9.70;99.90;;;9.72;100.00;100346.53;4973968;28;20634;-66
2023/01/11 08:40:30;;;;;;;0.70;0.70;;;9.60;99.90;;;9.68;100.00;100342.47;5004368;28;21217;-67
2023/01/11 08:42:57;;;;;;;0.50;0.50;;;9.60;99.90;;;9.70;100.00;100356.22;5000256;28;21752;-65
2023/01/11 08:45:24;;;;;;;1.10;0.50;;;9.60;99.90;;;9.69;100.00;100346.75;5008869;28;20636;-66
2023/01/11 08:47:52;;;;;;;1.00;0.63;;;9.60;99.90;;;9.73;100.00;100350.81;5009949;28;20667;-66
2023/01/11 08:50:20;;;;;;;0.40;0.40;;;9.60;99.90;;;9.73;100.00;100354.22;5025205;28;20628;-66
2023/01/11 08:52:49;;;;;;;0.67;0.67;;;9.60;99.90;;;9.73;100.00;100350.81;4998987;28;20728;-66
2023/01/11 08:55:17;;;;;;;0.50;0.50;;;9.70;99.90;;;9.76;100.00;100350.56;5015453;28;20625;-65
2023/01/11 08:57:44;;;;;;;0.40;0.40;;;9.70;99.90;;;9.74;100.00;100353.28;5015542;28;21055;-63
2023/01/11 09:00:12;;;;;;;0.30;0.30;;;9.70;99.90;;;9.77;100.00;100352.25;4992034;28;20638;-66
2023/01/11 09:02:39;;;;;;;0.40;0.40;;;9.70;99.90;;;9.77;100.00;100344.44;5009310;28;20987;-65
2023/01/11 09:05:07;;;;;;;0.53;0.40;;;9.70;99.90;;;9.81;100.00;100348.47;5011088;28;20629;-66
2023/01/11 09:07:34;;;;;;;0.20;0.20;;;9.70;99.90;;;9.81;100.00;100354.50;5055536;22;21125;-67
2023/01/11 09:10:01;;;;;;;0.30;0.30;;;9.80;99.90;;;9.88;100.00;100347.88;5036707;28;20639;-68
2023/01/11 09:12:27;;;;;;;0.40;0.40;;;9.80;99.90;;;9.89;100.00;100359.16;5031207;28;21210;-68
2023/01/11 09:14:54;;;;;;;0.30;0.30;;;9.80;99.90;;;9.90;100.00;100353.81;5033767;28;20620;-67
2023/01/11 09:17:21;;;;;;;0.40;0.40;;;9.80;99.90;;;9.92;100.00;100353.72;5033309;28;20675;-66
2023/01/11 09:19:48;;;;;;;0.40;0.40;;;9.80;99.90;;;9.94;100.00;100354.44;5033680;28;20666;-67
2023/01/11 09:22:15;;;;;;;0.40;0.40;;;9.80;99.90;;;10.00;100.00;100356.59;5013792;28;20723;-67
2023/01/11 09:24:42;;;;;;;0.40;0.40;;;9.90;99.90;;;10.00;100.00;100360.03;5033906;28;20608;-66
2023/01/11 09:27:10;;;;;;;0.80;0.67;;;10.00;99.90;;;10.05;100.00;100362.31;5024959;28;20756;-67
2023/01/11 09:29:37;;;;;;;0.57;0.57;;;10.00;99.90;;;9.96;100.00;100373.41;5013440;28;20997;-66
2023/01/11 09:32:05;;;;;;;0.30;0.30;;;9.90;99.90;;;10.03;100.00;100364.16;5019175;28;21225;-66
2023/01/11 09:34:32;;;;;;;1.13;0.50;;;9.90;99.90;;;10.06;100.00;100363.97;5029961;28;21007;-66
2023/01/11 09:37:01;;;;;;;0.50;0.50;;;10.00;99.90;;;10.06;100.00;100361.34;5025963;28;20653;-69
2023/01/11 09:39:28;;;;;;;0.93;0.50;;;10.00;99.90;;;10.07;100.00;100374.25;5012889;28;21188;-68
2023/01/11 09:42:37;;;;;;;0.40;0.40;;;10.00;99.90;;;10.06;100.00;100377.00;5017847;28;20632;-66
2023/01/11 09:45:16;;;;;;;0.33;0.33;;;10.00;99.90;;;10.03;100.00;100375.44;4933855;29;21024;-66
2023/01/11 09:48:13;;;;;;;0.40;0.40;;;10.00;99.90;;;10.08;100.00;100369.88;4995802;28;20668;-65
2023/01/11 09:50:47;;;;;;;0.40;0.40;;;10.00;99.90;;;10.10;100.00;100370.59;5014453;28;20679;-66
2023/01/11 09:53:33;;;;;;;0.60;0.60;;;10.00;99.90;;;10.06;100.00;100372.63;5012069;28;20644;-66
2023/01/11 09:56:04;;;;;;;0.40;0.40;;;10.00;99.90;;;10.05;100.00;100373.53;5032395;28;20636;-67
2023/01/11 09:59:01;;;;;;;0.50;0.50;;;10.00;99.90;;;10.05;100.00;100377.94;5012270;28;20637;-66
2023/01/11 10:02:36;;;;;;;0.40;0.40;;;10.00;99.90;;;10.08;100.00;100377.72;5014206;28;20612;-66
2023/01/11 10:05:33;;;;;;;0.40;0.40;;;10.00;99.90;;;10.11;100.00;100375.72;5021579;28;20626;-68
2023/01/11 10:08:23;;;;;;;0.40;0.30;;;10.00;99.90;;;10.13;100.00;100375.63;5004155;28;20673;-67
2023/01/11 10:11:46;;;;;;;0.40;0.40;;;10.00;99.90;;;10.14;100.00;100372.91;4999262;28;21178;-66
2023/01/11 10:14:39;;;;;;;0.60;0.60;;;10.10;99.90;;;10.18;100.00;100381.31;5027615;28;20657;-66
2023/01/11 10:17:47;;;;;;;0.40;0.40;;;10.10;99.90;;;10.15;100.00;100371.13;5044608;28;20716;-66
2023/01/11 10:20:43;;;;;;;0.37;0.37;;;10.10;99.90;;;10.19;100.00;100380.38;5012321;28;20609;-66
2023/01/11 10:23:30;;;;;;;0.70;0.70;;;10.10;99.90;;;10.24;100.00;100382.66;5004122;28;20651;-67
2023/01/11 10:26:03;;;;;;;0.70;0.70;;;10.10;99.90;;;10.25;100.00;100374.72;5014803;28;20830;-67
2023/01/11 10:28:42;;;;;;;0.60;0.60;;;10.10;99.90;;;10.24;100.00;100370.47;5013607;28;21200;-66
2023/01/11 10:34:21;;;;;;;0.37;0.37;;;10.20;99.90;;;10.31;100.00;100369.03;4996845;28;20989;-66
2023/01/11 10:42:55;;;;;;;1.60;0.90;;;10.30;99.90;;;10.43;100.00;100390.78;5011926;28;21002;-66
2023/01/11 10:45:46;;;;;;;0.90;0.90;;;10.40;99.90;;;10.46;100.00;100386.16;5034271;28;20616;-67
2023/01/11 10:48:26;;;;;;;0.90;0.90;;;10.40;99.90;;;10.47;100.00;100393.03;5009171;28;20660;-66
2023/01/11 10:51:10;;;;;;;1.07;1.07;;;10.40;99.90;;;10.51;100.00;100396.25;5016446;28;20620;-66
2023/01/11 10:53:56;;;;;;;0.70;0.70;;;10.40;99.90;;;10.54;100.00;100404.66;5023865;28;20632;-66
2023/01/11 10:56:52;;;;;;;1.33;0.90;;;10.50;99.90;;;10.61;100.00;100428.50;5029563;28;21028;-66
2023/01/11 11:00:06;;;;;;;4.63;0.73;;;10.50;99.90;;;10.62;100.00;100423.19;5029825;28;20632;-66
2023/01/11 11:03:31;;;;;;;1.07;1.00;;;10.50;99.90;;;10.68;100.00;100433.16;5026341;28;20748;-67
2023/01/11 11:06:11;;;;;;;0.80;0.80;;;10.60;99.90;;;10.71;100.00;100427.69;5030616;28;20668;-66
2023/01/11 11:08:51;;;;;;;0.80;0.80;;;10.60;99.90;;;10.79;100.00;100425.34;5047308;28;20624;-67
2023/01/11 11:11:34;;;;;;;1.00;0.90;;;10.70;99.90;;;10.86;100.00;100410.88;5024002;28;20628;-66
2023/01/11 11:14:28;;;;;;;0.30;0.30;;;10.80;99.90;;;10.87;100.00;100409.94;4993843;28;20656;-67
2023/01/11 11:17:22;;;;;;;0.60;0.40;;;10.80;99.90;;;10.85;100.00;100401.41;4993859;28;20625;-67
2023/01/11 11:19:51;;;;;;;0.80;0.80;;;10.80;99.90;;;10.80;100.00;100402.69;5013986;28;21041;-66